createdAt,value
2022-11-13T00:00:35.491Z,16.90
2022-11-13T00:03:02.032Z,18.80
2022-11-13T00:05:28.495Z,18.60
2022-11-13T00:07:54.920Z,17.17
2022-11-13T00:10:21.409Z,16.00
2022-11-13T00:12:48.268Z,18.13
2022-11-13T00:15:15.148Z,19.03
2022-11-13T00:17:41.562Z,16.97
2022-11-13T00:20:08.338Z,18.40
2022-11-13T00:22:34.827Z,16.80
2022-11-13T00:25:01.280Z,19.60
2022-11-13T00:27:30.200Z,19.60
2022-11-13T00:29:56.973Z,18.63
2022-11-13T00:32:23.669Z,19.33
2022-11-13T00:34:50.414Z,15.10
2022-11-13T00:37:16.940Z,20.77
2022-11-13T00:39:43.814Z,20.00
2022-11-13T00:42:10.330Z,16.43
2022-11-13T00:44:36.774Z,17.70
2022-11-13T00:47:03.284Z,15.70
2022-11-13T00:49:30.358Z,15.03
2022-11-13T00:51:56.874Z,15.60
2022-11-13T00:54:23.333Z,13.73
2022-11-13T00:56:49.850Z,15.00
2022-11-13T00:59:16.286Z,17.47
2022-11-13T01:01:42.823Z,15.73
2022-11-13T01:04:09.292Z,15.63
2022-11-13T01:06:35.935Z,15.83
2022-11-13T01:09:02.618Z,17.97
2022-11-13T01:11:30.165Z,17.17
2022-11-13T01:13:57.129Z,16.20
2022-11-13T01:16:26.469Z,15.30
2022-11-13T01:18:56.643Z,16.30
2022-11-13T01:21:25.773Z,14.87
2022-11-13T01:23:52.353Z,15.63
2022-11-13T01:26:20.183Z,13.90
2022-11-13T01:28:47.436Z,15.13
2022-11-13T01:31:21.138Z,16.90
2022-11-13T01:33:48.220Z,17.00
2022-11-13T01:36:20.580Z,22.07
2022-11-13T01:38:47.746Z,19.07
2022-11-13T01:41:28.939Z,17.77
2022-11-13T01:43:56.376Z,16.63
2022-11-13T01:46:29.986Z,16.80
2022-11-13T01:49:08.568Z,15.97
2022-11-13T01:51:39.487Z,14.87
2022-11-13T01:54:10.123Z,14.73
2022-11-13T01:56:37.231Z,15.93
2022-11-13T01:59:16.691Z,14.13
2022-11-13T02:01:43.318Z,14.67
2022-11-13T02:04:09.885Z,16.17
2022-11-13T02:06:42.257Z,14.67
2022-11-13T02:09:09.949Z,14.37
2022-11-13T02:11:37.827Z,15.00
2022-11-13T02:14:05.577Z,14.47
2022-11-13T02:16:33.228Z,14.20
2022-11-13T02:19:00.371Z,13.87
2022-11-13T02:21:38.421Z,15.63
2022-11-13T02:24:18.061Z,14.20
2022-11-13T02:26:44.895Z,16.93
2022-11-13T02:29:11.404Z,17.87
2022-11-13T02:31:37.981Z,16.27
2022-11-13T02:34:04.463Z,14.47
2022-11-13T02:36:32.099Z,15.20
2022-11-13T02:39:01.625Z,17.87
2022-11-13T02:41:28.112Z,18.53
2022-11-13T02:43:54.536Z,19.23
2022-11-13T02:46:20.994Z,19.73
2022-11-13T02:48:47.422Z,20.20
2022-11-13T02:51:14.300Z,20.43
2022-11-13T02:53:40.791Z,17.17
2022-11-13T02:56:07.587Z,14.43
2022-11-13T02:58:34.054Z,14.70
2022-11-13T03:01:04.483Z,13.90
2022-11-13T03:03:56.588Z,13.80
2022-11-13T03:06:17.352Z,14.77
2022-11-13T03:08:43.806Z,15.07
2022-11-13T03:11:11.392Z,14.23
2022-11-13T03:13:38.241Z,14.37
2022-11-13T03:16:10.152Z,20.43
2022-11-13T03:21:12.944Z,15.13
2022-11-13T03:23:41.169Z,14.00
2022-11-13T03:26:10.335Z,15.70
2022-11-13T03:28:37.520Z,15.10
2022-11-13T03:31:04.514Z,13.90
2022-11-13T03:33:31.523Z,15.37
2022-11-13T03:35:58.114Z,13.40
2022-11-13T03:38:24.686Z,13.03
2022-11-13T03:40:51.663Z,13.70
2022-11-13T03:43:18.459Z,14.93
2022-11-13T03:45:46.494Z,14.47
2022-11-13T03:48:14.179Z,15.13
2022-11-13T03:50:45.622Z,14.10
2022-11-13T03:53:12.658Z,13.13
2022-11-13T03:55:39.313Z,14.37
2022-11-13T03:58:06.007Z,15.13
2022-11-13T04:00:33.081Z,15.33
2022-11-13T04:02:59.636Z,14.77
2022-11-13T04:05:26.251Z,15.40
2022-11-13T04:07:52.766Z,14.90
2022-11-13T04:10:19.279Z,14.80
2022-11-13T04:12:45.733Z,15.43
2022-11-13T04:15:12.203Z,15.30
2022-11-13T04:17:38.668Z,16.27
2022-11-13T04:20:05.691Z,17.70
2022-11-13T04:22:32.167Z,17.93
2022-11-13T04:24:58.624Z,18.93
2022-11-13T04:27:25.082Z,18.90
2022-11-13T04:29:51.572Z,20.50
2022-11-13T04:32:18.078Z,21.13
2022-11-13T04:34:44.530Z,21.07
2022-11-13T04:37:10.994Z,22.50
2022-11-13T04:39:37.484Z,24.17
2022-11-13T04:42:36.307Z,23.50
2022-11-13T04:45:03.040Z,23.00
2022-11-13T04:47:29.505Z,22.37
2022-11-13T04:49:55.925Z,24.30
2022-11-13T04:52:22.440Z,24.67
2022-11-13T04:54:48.869Z,21.50
2022-11-13T04:57:15.305Z,22.77
2022-11-13T04:59:41.738Z,21.63
2022-11-13T05:02:08.214Z,24.57
2022-11-13T05:04:34.816Z,23.27
2022-11-13T05:07:01.370Z,22.30
2022-11-13T05:09:27.985Z,22.43
2022-11-13T05:11:54.427Z,26.93
2022-11-13T05:14:20.898Z,24.03
2022-11-13T05:16:47.371Z,23.07
2022-11-13T05:19:13.815Z,21.33
2022-11-13T05:21:40.314Z,21.53
2022-11-13T05:24:07.130Z,22.47
2022-11-13T05:26:33.587Z,23.30
2022-11-13T05:29:00.857Z,24.50
2022-11-13T05:31:27.389Z,25.67
2022-11-13T05:33:53.989Z,26.53
2022-11-13T05:36:20.832Z,26.37
2022-11-13T05:38:47.606Z,27.17
2022-11-13T05:41:17.307Z,29.43
2022-11-13T05:43:44.409Z,27.90
2022-11-13T05:46:15.100Z,27.97
2022-11-13T05:48:42.482Z,28.23
2022-11-13T05:51:15.247Z,29.37
2022-11-13T05:53:42.350Z,28.20
2022-11-13T05:56:18.468Z,30.57
2022-11-13T05:58:45.547Z,31.70
2022-11-13T06:01:14.426Z,27.47
2022-11-13T06:03:41.302Z,29.87
2022-11-13T06:06:09.367Z,31.13
2022-11-13T06:08:36.394Z,26.87
2022-11-13T06:11:11.349Z,28.70
2022-11-13T06:13:38.679Z,29.40
2022-11-13T06:16:05.314Z,29.97
2022-11-13T06:18:32.664Z,30.73
2022-11-13T06:21:15.354Z,28.77
2022-11-13T06:23:42.328Z,28.90
2022-11-13T06:26:14.710Z,28.97
2022-11-13T06:28:41.579Z,27.33
2022-11-13T06:31:17.187Z,29.07
2022-11-13T06:33:43.818Z,26.47
2022-11-13T06:36:18.896Z,28.70
2022-11-13T06:38:45.495Z,27.23
2022-11-13T06:41:14.174Z,26.93
2022-11-13T06:43:41.072Z,26.90
2022-11-13T06:46:19.960Z,29.13
2022-11-13T06:48:48.585Z,29.03
2022-11-13T06:51:19.028Z,29.57
2022-11-13T06:53:47.356Z,29.70
2022-11-13T06:56:14.877Z,28.23
2022-11-13T06:58:42.365Z,29.00
2022-11-13T07:01:17.599Z,29.23
2022-11-13T07:03:45.017Z,29.73
2022-11-13T07:06:23.136Z,30.00
2022-11-13T07:08:50.499Z,30.20
2022-11-13T07:11:21.900Z,29.63
2022-11-13T07:13:49.308Z,28.17
2022-11-13T07:16:18.256Z,28.97
2022-11-13T07:18:51.579Z,29.20
2022-11-13T07:21:19.030Z,29.87
2022-11-13T07:23:48.857Z,29.97
2022-11-13T07:26:17.238Z,30.40
2022-11-13T07:28:44.248Z,28.77
2022-11-13T07:31:12.868Z,29.93
2022-11-13T07:33:39.449Z,29.10
2022-11-13T07:36:06.555Z,27.47
2022-11-13T07:38:33.028Z,28.07
2022-11-13T07:40:59.850Z,27.90
2022-11-13T07:43:26.538Z,29.13
2022-11-13T07:45:54.870Z,27.77
2022-11-13T07:48:24.891Z,27.57
2022-11-13T07:50:51.570Z,28.30
2022-11-13T07:53:18.930Z,27.73
2022-11-13T07:55:45.942Z,28.10
2022-11-13T07:58:12.585Z,27.63
2022-11-13T08:00:39.642Z,28.17
2022-11-13T08:03:08.064Z,28.73
2022-11-13T08:05:34.624Z,27.43
2022-11-13T08:08:01.184Z,28.37
2022-11-13T08:10:28.140Z,28.73
2022-11-13T08:13:02.594Z,28.03
2022-11-13T08:15:30.091Z,27.70
2022-11-13T08:17:57.660Z,27.90
2022-11-13T08:20:25.169Z,27.77
2022-11-13T08:22:51.740Z,28.73
2022-11-13T08:25:18.748Z,28.23
2022-11-13T08:27:45.586Z,28.50
2022-11-13T08:30:13.253Z,29.80
2022-11-13T08:32:39.751Z,28.53
2022-11-13T08:35:06.547Z,30.90
2022-11-13T08:37:33.543Z,30.97
2022-11-13T08:40:00.002Z,29.80
2022-11-13T08:42:26.442Z,29.37
2022-11-13T08:44:52.890Z,30.90
2022-11-13T08:47:19.362Z,29.90
2022-11-13T08:49:45.814Z,30.07
2022-11-13T08:52:12.305Z,31.07
2022-11-13T08:54:38.755Z,32.83
2022-11-13T08:57:06.235Z,32.30
2022-11-13T08:59:32.788Z,31.50
2022-11-13T09:01:59.797Z,30.87
2022-11-13T09:04:26.751Z,32.03
2022-11-13T09:06:53.583Z,32.23
2022-11-13T09:09:21.917Z,31.03
2022-11-13T09:11:48.406Z,31.53
2022-11-13T09:14:15.096Z,32.00
2022-11-13T09:16:41.965Z,31.20
2022-11-13T09:21:36.067Z,32.17
2022-11-13T09:24:03.525Z,31.23
2022-11-13T09:26:29.997Z,30.57
2022-11-13T09:28:56.791Z,29.53
2022-11-13T09:31:23.437Z,30.93
2022-11-13T09:33:49.895Z,30.20
2022-11-13T09:36:17.387Z,32.47
2022-11-13T09:38:44.232Z,31.67
2022-11-13T09:41:14.852Z,31.53
2022-11-13T09:43:59.616Z,30.47
2022-11-13T09:46:51.808Z,31.30
2022-11-13T09:49:47.318Z,30.47
2022-11-13T09:52:24.761Z,33.63
2022-11-13T09:54:51.575Z,31.20
2022-11-13T09:57:31.150Z,30.87
2022-11-13T10:00:11.919Z,31.97
2022-11-13T10:03:17.680Z,31.70
2022-11-13T10:05:49.928Z,31.50
2022-11-13T10:08:20.019Z,32.87
2022-11-13T10:10:56.305Z,33.33
2022-11-13T10:13:32.483Z,31.07
2022-11-13T10:16:22.612Z,31.73
2022-11-13T10:18:50.855Z,32.87
2022-11-13T10:21:27.769Z,33.77
2022-11-13T10:23:58.158Z,32.70
2022-11-13T10:26:28.018Z,32.13
2022-11-13T10:29:01.007Z,33.87
2022-11-13T10:31:27.491Z,31.93
2022-11-13T10:33:55.305Z,33.57
2022-11-13T10:36:36.241Z,32.37
2022-11-13T10:39:06.696Z,32.97
2022-11-13T10:41:33.763Z,32.73
2022-11-13T10:44:07.720Z,33.37
2022-11-13T10:46:34.538Z,30.83
2022-11-13T10:49:18.918Z,29.97
2022-11-13T10:51:45.421Z,28.47
2022-11-13T10:54:23.284Z,28.23
2022-11-13T10:57:25.164Z,28.43
2022-11-13T10:59:51.798Z,28.80
2022-11-13T11:02:23.473Z,31.40
2022-11-13T11:04:50.244Z,24.50
2022-11-13T11:07:22.136Z,23.47
2022-11-13T11:09:50.915Z,23.03
2022-11-13T11:12:22.026Z,22.70
2022-11-13T11:14:56.908Z,22.47
2022-11-13T11:17:27.328Z,21.37
2022-11-13T11:20:01.032Z,20.83
2022-11-13T11:22:30.677Z,22.20
2022-11-13T11:25:06.243Z,21.83
2022-11-13T11:27:37.731Z,21.33
2022-11-13T11:30:12.646Z,22.60
2022-11-13T11:32:44.886Z,21.53
2022-11-13T11:35:41.826Z,22.73
2022-11-13T11:38:28.349Z,24.47
2022-11-13T11:41:13.324Z,21.77
2022-11-13T11:43:46.055Z,23.47
2022-11-13T11:46:13.710Z,24.07
2022-11-13T11:48:40.665Z,25.50
2022-11-13T11:51:27.422Z,25.20
2022-11-13T11:53:58.440Z,25.43
2022-11-13T11:56:31.528Z,26.23
2022-11-13T11:59:06.352Z,26.43
2022-11-13T12:02:18.229Z,27.70
2022-11-13T12:05:03.574Z,26.50
2022-11-13T12:07:36.204Z,29.27
2022-11-13T12:10:24.640Z,27.57
2022-11-13T12:13:03.997Z,25.73
2022-11-13T12:16:09.611Z,24.20
2022-11-13T12:18:50.780Z,23.83
2022-11-13T12:21:51.630Z,24.50
2022-11-13T12:24:22.929Z,22.97
2022-11-13T12:27:10.664Z,23.03
2022-11-13T12:30:08.677Z,22.30
2022-11-13T12:32:42.932Z,21.27
2022-11-13T12:35:20.691Z,20.67
2022-11-13T12:37:55.807Z,25.27
2022-11-13T12:40:33.390Z,23.63
2022-11-13T12:43:50.473Z,23.30
2022-11-13T12:46:17.762Z,24.30
2022-11-13T12:48:46.476Z,24.10
2022-11-13T12:51:16.089Z,23.13
2022-11-13T12:53:51.476Z,20.43
2022-11-13T12:56:24.023Z,21.23
2022-11-13T12:59:31.333Z,20.77
2022-11-13T13:02:07.162Z,22.17
2022-11-13T13:04:57.959Z,24.73
2022-11-13T13:07:50.722Z,22.37
2022-11-13T13:10:47.543Z,22.07
2022-11-13T13:13:25.971Z,22.97
2022-11-13T13:15:59.953Z,23.23
2022-11-13T13:18:33.495Z,21.37
2022-11-13T13:21:09.566Z,21.90
2022-11-13T13:23:38.638Z,22.33
2022-11-13T13:26:17.530Z,22.10
2022-11-13T13:28:49.806Z,23.63
2022-11-13T13:31:39.770Z,23.33
2022-11-13T13:34:21.507Z,22.10
2022-11-13T13:36:58.803Z,22.97
2022-11-13T13:40:02.777Z,24.70
2022-11-13T13:42:41.471Z,24.83
2022-11-13T13:45:32.735Z,26.33
2022-11-13T13:48:00.529Z,27.13
2022-11-13T13:50:33.769Z,27.30
2022-11-13T13:53:00.616Z,26.10
2022-11-13T13:55:28.610Z,27.43
2022-11-13T13:57:55.274Z,27.40
2022-11-13T14:00:21.799Z,27.60
2022-11-13T14:02:50.156Z,28.80
2022-11-13T14:05:24.954Z,26.43
2022-11-13T14:07:51.447Z,27.63
2022-11-13T14:10:23.980Z,26.43
2022-11-13T14:12:50.796Z,27.67
2022-11-13T14:15:24.118Z,28.23
2022-11-13T14:17:50.614Z,28.80
2022-11-13T14:20:17.656Z,27.90
2022-11-13T14:22:48.394Z,27.13
2022-11-13T14:25:24.276Z,26.90
2022-11-13T14:27:51.745Z,27.07
2022-11-13T14:30:27.075Z,26.10
2022-11-13T14:32:54.094Z,27.27
2022-11-13T14:35:25.570Z,27.33
2022-11-13T14:37:53.519Z,27.07
2022-11-13T14:40:35.670Z,26.00
2022-11-13T14:43:07.740Z,23.67
2022-11-13T14:45:34.353Z,24.93
2022-11-13T14:48:16.103Z,23.67
2022-11-13T14:50:57.444Z,24.90
2022-11-13T14:53:38.614Z,23.27
2022-11-13T14:56:10.731Z,24.13
2022-11-13T14:58:47.362Z,22.87
2022-11-13T15:01:16.900Z,23.07
2022-11-13T15:03:44.727Z,24.13
2022-11-13T15:06:14.891Z,23.00
2022-11-13T15:08:41.499Z,22.13
2022-11-13T15:11:09.714Z,23.27
2022-11-13T15:13:36.167Z,22.70
2022-11-13T15:16:02.753Z,25.13
2022-11-13T15:18:29.254Z,22.57
2022-11-13T15:20:55.717Z,23.07
2022-11-13T15:23:25.772Z,23.47
2022-11-13T15:25:54.670Z,21.93
2022-11-13T15:28:21.137Z,21.40
2022-11-13T15:30:47.634Z,21.00
2022-11-13T15:33:15.703Z,23.30
2022-11-13T15:35:42.901Z,22.93
2022-11-13T15:38:12.380Z,23.53
2022-11-13T15:40:39.216Z,23.20
2022-11-13T15:43:14.871Z,23.80
2022-11-13T15:45:44.265Z,21.80
2022-11-13T15:48:11.105Z,21.23
2022-11-13T15:50:37.555Z,22.37
2022-11-13T15:53:05.668Z,21.53
2022-11-13T15:55:32.707Z,22.27
2022-11-13T15:58:02.062Z,22.00
2022-11-13T16:00:28.988Z,20.40
2022-11-13T16:02:56.878Z,21.57
2022-11-13T16:05:25.536Z,23.17
2022-11-13T16:07:53.313Z,24.10
2022-11-13T16:10:24.935Z,22.43
2022-11-13T16:12:52.630Z,22.87
2022-11-13T16:15:19.717Z,21.83
2022-11-13T16:17:54.607Z,21.37
2022-11-13T16:20:21.098Z,21.97
2022-11-13T16:22:47.820Z,21.03
2022-11-13T16:25:16.941Z,21.10
2022-11-13T16:27:43.587Z,20.23
2022-11-13T16:30:17.419Z,20.03
2022-11-13T16:32:43.849Z,18.70
2022-11-13T16:35:17.795Z,19.20
2022-11-13T16:37:44.250Z,19.17
2022-11-13T16:40:16.774Z,21.27
2022-11-13T16:42:43.247Z,20.00
2022-11-13T16:45:10.830Z,20.83
2022-11-13T16:47:37.283Z,21.60
2022-11-13T16:50:03.873Z,22.40
2022-11-13T16:52:31.869Z,21.73
2022-11-13T16:55:03.690Z,20.27
2022-11-13T16:57:32.958Z,18.23
2022-11-13T16:59:59.516Z,18.23
2022-11-13T17:02:29.098Z,18.30
2022-11-13T17:04:56.295Z,18.40
2022-11-13T17:07:22.847Z,18.07
2022-11-13T17:10:09.973Z,19.70
2022-11-13T17:12:38.794Z,20.00
2022-11-13T17:15:05.994Z,19.27
2022-11-13T17:17:32.422Z,19.33
2022-11-13T17:19:58.898Z,17.90
2022-11-13T17:22:25.458Z,18.60
2022-11-13T17:24:51.942Z,17.50
2022-11-13T17:27:19.469Z,18.50
2022-11-13T17:29:47.028Z,18.23
2022-11-13T17:32:14.616Z,16.87
2022-11-13T17:34:43.460Z,22.07
2022-11-13T17:37:10.066Z,21.90
2022-11-13T17:39:37.589Z,15.90
2022-11-13T17:42:04.236Z,15.37
2022-11-13T17:44:34.899Z,15.90
2022-11-13T17:47:01.315Z,16.60
2022-11-13T17:49:29.864Z,16.53
2022-11-13T17:51:56.888Z,16.40
2022-11-13T17:54:25.271Z,14.97
2022-11-13T17:56:51.709Z,15.47
2022-11-13T17:59:18.174Z,16.20
2022-11-13T18:01:44.704Z,14.60
2022-11-13T18:04:12.325Z,14.33
2022-11-13T18:06:38.880Z,14.23
2022-11-13T18:09:06.354Z,13.83
2022-11-13T18:11:32.985Z,14.00
2022-11-13T18:14:01.183Z,13.97
2022-11-13T18:16:31.447Z,13.77
2022-11-13T18:19:00.011Z,13.80
2022-11-13T18:21:32.414Z,15.67
2022-11-13T18:24:05.967Z,16.80
2022-11-13T18:26:33.606Z,13.00
2022-11-13T18:29:00.894Z,12.47
2022-11-13T18:31:28.027Z,13.90
2022-11-13T18:33:54.883Z,13.03
2022-11-13T18:36:21.401Z,13.17
2022-11-13T18:38:47.903Z,12.47
2022-11-13T18:41:18.817Z,13.97
2022-11-13T18:43:46.558Z,12.90
2022-11-13T18:46:14.602Z,13.17
2022-11-13T18:48:42.660Z,14.07
2022-11-13T18:51:14.954Z,13.60
2022-11-13T18:53:43.633Z,13.50
2022-11-13T18:56:15.043Z,14.47
2022-11-13T18:58:43.226Z,14.03
2022-11-13T19:01:22.197Z,13.70
2022-11-13T19:04:16.150Z,13.67
2022-11-13T19:06:38.450Z,13.30
2022-11-13T19:09:07.449Z,12.23
2022-11-13T19:11:34.367Z,12.80
2022-11-13T19:14:00.866Z,12.80
2022-11-13T19:16:36.723Z,14.30
2022-11-13T19:19:17.900Z,13.63
2022-11-13T19:21:45.217Z,13.40
2022-11-13T19:24:13.189Z,12.37
2022-11-13T19:26:40.654Z,13.27
2022-11-13T19:29:07.231Z,13.40
2022-11-13T19:31:34.544Z,12.67
2022-11-13T19:34:03.852Z,13.20
2022-11-13T19:36:31.763Z,13.23
2022-11-13T19:38:59.094Z,12.73
2022-11-13T19:41:27.536Z,13.70
2022-11-13T19:43:54.396Z,16.97
2022-11-13T19:46:21.375Z,17.47
2022-11-13T19:48:48.766Z,15.87
2022-11-13T19:51:23.955Z,14.03
2022-11-13T19:53:55.077Z,15.80
2022-11-13T19:56:22.193Z,16.57
2022-11-13T19:58:50.276Z,15.97
2022-11-13T20:01:19.760Z,17.77
2022-11-13T20:03:46.684Z,16.40
2022-11-13T20:06:17.226Z,15.23
2022-11-13T20:08:44.028Z,17.07
2022-11-13T20:11:12.076Z,16.87
2022-11-13T20:13:39.364Z,19.47
2022-11-13T20:16:06.834Z,17.47
2022-11-13T20:18:33.323Z,19.20
2022-11-13T20:21:00.298Z,18.93
2022-11-13T20:23:27.084Z,19.07
2022-11-13T20:25:55.917Z,19.57
2022-11-13T20:28:23.091Z,18.80
2022-11-13T20:30:49.745Z,19.83
2022-11-13T20:33:22.195Z,20.83
2022-11-13T20:35:55.323Z,21.03
2022-11-13T20:38:21.853Z,20.73
2022-11-13T20:40:48.493Z,19.77
2022-11-13T20:43:14.970Z,21.17
2022-11-13T20:45:41.452Z,19.13
2022-11-13T20:48:07.908Z,20.90
2022-11-13T20:50:37.981Z,19.07
2022-11-13T20:53:05.307Z,18.50
2022-11-13T20:55:32.023Z,19.80
2022-11-13T20:57:58.549Z,19.83
2022-11-13T21:00:25.021Z,18.73
2022-11-13T21:02:51.910Z,20.10
2022-11-13T21:05:18.559Z,19.20
2022-11-13T21:07:45.020Z,19.27
2022-11-13T21:10:11.480Z,17.83
2022-11-13T21:12:37.929Z,17.43
2022-11-13T21:15:04.937Z,14.70
2022-11-13T21:17:31.392Z,15.40
2022-11-13T21:19:58.014Z,17.07
2022-11-13T21:22:24.557Z,17.07
2022-11-13T21:24:51.009Z,16.57
2022-11-13T21:27:17.536Z,15.77
2022-11-13T21:29:44.021Z,16.73
2022-11-13T21:32:10.531Z,15.47
2022-11-13T21:34:36.968Z,13.70
2022-11-13T21:37:03.521Z,13.60
2022-11-13T21:39:31.012Z,12.13
2022-11-13T21:41:57.464Z,11.57
2022-11-13T21:44:24.045Z,10.90
2022-11-13T21:46:50.508Z,9.77
2022-11-13T21:49:17.052Z,10.13
2022-11-13T21:51:43.803Z,10.13
2022-11-13T21:54:10.399Z,9.97
2022-11-13T21:56:37.971Z,10.50
2022-11-13T21:59:05.473Z,10.07
2022-11-13T22:01:37.861Z,9.20
2022-11-13T22:04:04.975Z,9.83
2022-11-13T22:06:33.222Z,8.97
2022-11-13T22:09:01.230Z,8.97
2022-11-13T22:11:30.990Z,8.80
2022-11-13T22:13:58.020Z,9.37
2022-11-13T22:16:26.091Z,8.97
2022-11-13T22:18:57.120Z,9.23
2022-11-13T22:21:24.589Z,8.37
2022-11-13T22:23:51.278Z,8.50
2022-11-13T22:26:18.571Z,8.60
2022-11-13T22:28:46.224Z,8.63
2022-11-13T22:31:29.675Z,9.23
2022-11-13T22:33:56.651Z,8.80
2022-11-13T22:36:25.601Z,8.30
2022-11-13T22:38:52.588Z,8.27
2022-11-13T22:41:23.517Z,9.17
2022-11-13T22:43:56.599Z,9.20
2022-11-13T22:46:25.324Z,9.40
2022-11-13T22:48:53.169Z,9.77
2022-11-13T22:51:23.017Z,11.27
2022-11-13T22:53:54.644Z,11.23
2022-11-13T22:56:22.675Z,11.93
2022-11-13T22:58:50.363Z,11.47
2022-11-13T23:01:22.032Z,13.40
2022-11-13T23:03:49.538Z,13.27
2022-11-13T23:06:18.336Z,13.07
2022-11-13T23:08:44.804Z,12.23
2022-11-13T23:11:13.468Z,12.17
2022-11-13T23:13:41.723Z,13.03
2022-11-13T23:16:08.679Z,12.57
2022-11-13T23:18:35.381Z,12.57
2022-11-13T23:21:01.862Z,11.60
2022-11-13T23:23:28.455Z,12.50
2022-11-13T23:25:54.919Z,12.20
2022-11-13T23:28:21.410Z,12.90
2022-11-13T23:30:47.964Z,12.40
2022-11-13T23:33:15.529Z,12.80
2022-11-13T23:35:42.906Z,12.73
2022-11-13T23:38:10.775Z,12.53
2022-11-13T23:40:37.255Z,12.83
2022-11-13T23:43:03.805Z,13.83
2022-11-13T23:45:30.482Z,13.23
2022-11-13T23:47:56.936Z,13.43
2022-11-13T23:50:23.442Z,13.73
2022-11-13T23:52:49.920Z,14.40
2022-11-13T23:55:17.015Z,14.10
2022-11-13T23:57:43.511Z,14.53
